Time;durP1;ratioP1;P1;durP2;ratioP2;P2;SDS_P1;SDS_P2;PMS_P1;PMS_P2;Temp;Humidity;BMP_temperature;BMP_pressure;BME280_temperature;BME280_humidity;BME280_pressure;Samples;Min_cycle;Max_cycle;Signal;HPM_P1;HPM_P2
2023/06/26 00:01:40;;;;;;;;;;;;;;;23.33;76.28;96704.41;588179;241;68568;-63
2023/06/26 00:04:07;;;;;;;;;;;;;;;23.33;76.31;96706.30;588127;241;63871;-63
2023/06/26 00:06:35;;;;;;;;;;;;;;;23.32;76.30;96699.33;588330;241;68498;-63
2023/06/26 00:09:03;;;;;;;;;;;;;;;23.32;76.31;96702.00;588309;241;68745;-63
2023/06/26 00:11:33;;;;;;;;;;;;;;;23.32;76.33;96691.28;588316;240;62643;-63
2023/06/26 00:14:03;;;;;;;;;;;;;;;23.32;76.32;96694.75;588283;241;66619;-63
2023/06/26 00:16:30;;;;;;;;;;;;;;;23.32;76.33;96696.64;588402;241;66652;-64
2023/06/26 00:19:01;;;;;;;;;;;;;;;23.31;76.32;96690.48;588364;241;65058;-64
2023/06/26 00:21:29;;;;;;;;;;;;;;;23.31;76.33;96693.17;588446;241;68913;-63
2023/06/26 00:23:56;;;;;;;;;;;;;;;23.31;76.31;96690.48;588472;241;68193;-63
2023/06/26 00:26:24;;;;;;;;;;;;;;;23.32;76.31;96684.02;588325;240;65207;-63
2023/06/26 00:28:51;;;;;;;;;;;;;;;23.33;76.31;96684.84;588407;240;68332;-63
2023/06/26 00:31:20;;;;;;;;;;;;;;;23.32;76.32;96685.91;588343;241;69231;-64
2023/06/26 00:33:48;;;;;;;;;;;;;;;23.32;76.33;96686.70;588421;241;64971;-64
2023/06/26 00:36:15;;;;;;;;;;;;;;;23.33;76.35;96684.84;588460;240;68625;-64
2023/06/26 00:38:43;;;;;;;;;;;;;;;23.31;76.34;96685.13;588125;241;68397;-64
2023/06/26 00:41:12;;;;;;;;;;;;;;;23.31;76.34;96682.44;588193;241;66082;-64
2023/06/26 00:43:40;;;;;;;;;;;;;;;23.31;76.37;96679.77;588345;241;65871;-64
2023/06/26 00:46:10;;;;;;;;;;;;;;;23.32;76.34;96677.87;588280;241;45786;-64
2023/06/26 00:48:38;;;;;;;;;;;;;;;23.31;76.33;96678.97;588445;241;64910;-64
2023/06/26 00:51:07;;;;;;;;;;;;;;;23.31;76.33;96681.66;588312;241;66398;-64
2023/06/26 00:53:34;;;;;;;;;;;;;;;23.32;76.33;96675.19;588358;241;66709;-64
2023/06/26 00:56:04;;;;;;;;;;;;;;;23.31;76.32;96673.61;588143;241;63087;-64
2023/06/26 00:58:31;;;;;;;;;;;;;;;23.31;76.32;96679.77;588261;240;67447;-64
2023/06/26 01:01:00;;;;;;;;;;;;;;;23.32;76.33;96681.34;588365;241;66617;-64
2023/06/26 01:03:28;;;;;;;;;;;;;;;23.31;76.34;96678.97;587586;240;61641;-64
2023/06/26 01:05:57;;;;;;;;;;;;;;;23.30;76.37;96670.14;587231;241;69275;-64
2023/06/26 01:08:25;;;;;;;;;;;;;;;23.31;76.35;96666.36;587257;241;69455;-64
2023/06/26 01:10:52;;;;;;;;;;;;;;;23.31;76.35;96671.72;587314;241;64923;-64
2023/06/26 01:13:20;;;;;;;;;;;;;;;23.32;76.36;96667.15;587423;241;69611;-64
2023/06/26 01:15:48;;;;;;;;;;;;;;;23.30;76.33;96661.28;587292;241;68741;-64
2023/06/26 01:18:16;;;;;;;;;;;;;;;23.31;76.35;96665.56;587260;241;63346;-64
2023/06/26 01:20:45;;;;;;;;;;;;;;;23.30;76.33;96670.14;587208;240;68782;-64
2023/06/26 01:23:14;;;;;;;;;;;;;;;23.30;76.31;96667.45;582212;241;70283;-64
2023/06/26 01:25:44;;;;;;;;;;;;;;;23.30;76.34;96662.09;587247;240;65056;-63
2023/06/26 01:28:14;;;;;;;;;;;;;;;23.31;76.34;96661.00;587272;240;69655;-63
2023/06/26 01:30:43;;;;;;;;;;;;;;;23.30;76.35;96662.09;587195;240;68626;-63
2023/06/26 01:33:11;;;;;;;;;;;;;;;23.30;76.35;96655.91;587206;241;62776;-63
2023/06/26 01:35:38;;;;;;;;;;;;;;;23.30;76.35;96659.41;587232;241;66554;-63
2023/06/26 01:38:12;;;;;;;;;;;;;;;23.30;76.35;96653.23;587286;241;66301;-63
2023/06/26 01:40:40;;;;;;;;;;;;;;;23.31;76.35;96657.52;587184;241;65013;-63
2023/06/26 01:43:09;;;;;;;;;;;;;;;23.30;76.36;96658.59;587338;241;68839;-63
2023/06/26 01:45:37;;;;;;;;;;;;;;;23.30;76.38;96648.69;587007;241;69030;-63
2023/06/26 01:48:06;;;;;;;;;;;;;;;23.30;76.37;96645.19;587233;241;64913;-63
2023/06/26 01:50:36;;;;;;;;;;;;;;;23.30;76.41;96647.87;587093;241;69271;-63
2023/06/26 01:53:07;;;;;;;;;;;;;;;23.30;76.42;96645.19;587230;241;68614;-63
2023/06/26 01:55:45;;;;;;;;;;;;;;;23.30;76.44;96645.19;587177;241;64817;-63
2023/06/26 01:58:14;;;;;;;;;;;;;;;23.30;76.80;96647.87;587201;241;68642;-63
2023/06/26 02:00:42;;;;;;;;;;;;;;;23.29;76.56;96643.61;587261;241;66380;-62
2023/06/26 02:03:09;;;;;;;;;;;;;;;23.29;76.96;96647.08;581963;241;64818;-62
2023/06/26 02:05:39;;;;;;;;;;;;;;;23.32;80.05;96648.37;586567;241;50020;-63
2023/06/26 02:08:06;;;;;;;;;;;;;;;23.29;80.27;96641.72;586841;241;68565;-63
2023/06/26 02:10:34;;;;;;;;;;;;;;;23.28;78.35;96650.08;586559;241;64933;-63
2023/06/26 02:13:01;;;;;;;;;;;;;;;23.28;79.15;96634.78;586739;242;69879;-63
2023/06/26 02:15:29;;;;;;;;;;;;;;;23.29;80.48;96639.04;581751;241;68714;-63
2023/06/26 02:17:57;;;;;;;;;;;;;;;23.29;80.27;96643.61;587732;241;62766;-62
2023/06/26 02:20:25;;;;;;;;;;;;;;;23.28;80.17;96640.14;576543;242;68142;-62
2023/06/26 02:22:53;;;;;;;;;;;;;;;23.28;79.83;96642.82;586763;242;68547;-62
2023/06/26 02:25:20;;;;;;;;;;;;;;;23.26;79.18;96640.42;586671;242;65017;-62
2023/06/26 02:27:48;;;;;;;;;;;;;;;23.26;78.66;96651.14;586784;242;67486;-62
2023/06/26 02:30:15;;;;;;;;;;;;;;;23.28;79.09;96645.50;586454;242;66585;-62
2023/06/26 02:32:43;;;;;;;;;;;;;;;23.28;79.82;96647.39;586762;242;62828;-62
2023/06/26 02:35:11;;;;;;;;;;;;;;;23.28;80.45;96650.86;586799;242;69654;-63
2023/06/26 02:37:40;;;;;;;;;;;;;;;23.28;80.96;96637.45;586139;241;47458;-63
2023/06/26 02:40:09;;;;;;;;;;;;;;;23.28;80.49;96652.75;586739;242;63074;-63
2023/06/26 02:42:37;;;;;;;;;;;;;;;23.27;79.95;96659.98;586773;242;66728;-63
2023/06/26 02:45:05;;;;;;;;;;;;;;;23.27;80.06;96665.34;586735;242;69120;-63
2023/06/26 02:47:32;;;;;;;;;;;;;;;23.25;78.18;96671.02;586812;242;65055;-62
2023/06/26 02:50:00;;;;;;;;;;;;;;;23.27;78.00;96665.34;586757;242;68372;-62
2023/06/26 02:52:29;;;;;;;;;;;;;;;23.26;77.74;96669.13;586754;242;66312;-62
2023/06/26 02:54:57;;;;;;;;;;;;;;;23.26;78.64;96664.55;584870;242;65659;-62
2023/06/26 02:57:24;;;;;;;;;;;;;;;23.26;78.23;96666.44;586668;241;68794;-63
2023/06/26 02:59:52;;;;;;;;;;;;;;;23.28;78.62;96663.48;586807;241;66531;-63
2023/06/26 03:02:20;;;;;;;;;;;;;;;23.28;79.32;96663.48;586919;241;64703;-63
2023/06/26 03:04:47;;;;;;;;;;;;;;;23.28;79.93;96642.03;588272;241;69509;-63
2023/06/26 03:07:15;;;;;;;;;;;;;;;23.28;80.04;96656.23;588375;241;66215;-63
2023/06/26 03:09:43;;;;;;;;;;;;;;;23.28;80.84;96653.55;588333;241;64884;-63
2023/06/26 03:12:10;;;;;;;;;;;;;;;23.25;79.91;96646.88;588361;240;69014;-63
2023/06/26 03:14:38;;;;;;;;;;;;;;;23.25;79.25;96654.14;588295;241;68740;-63
2023/06/26 03:17:07;;;;;;;;;;;;;;;23.26;79.61;96642.31;588065;241;62858;-63
2023/06/26 03:19:34;;;;;;;;;;;;;;;23.26;79.56;96655.72;588299;241;69017;-63
2023/06/26 03:22:04;;;;;;;;;;;;;;;23.25;80.39;96641.52;587787;240;50284;-63
2023/06/26 03:24:33;;;;;;;;;;;;;;;23.26;78.84;96647.67;588270;240;63016;-63
2023/06/26 03:27:01;;;;;;;;;;;;;;;23.28;81.10;96655.44;588426;241;69086;-63
2023/06/26 03:29:29;;;;;;;;;;;;;;;23.25;79.98;96640.73;588393;241;69188;-63
2023/06/26 03:31:57;;;;;;;;;;;;;;;23.25;81.01;96649.56;588378;241;65016;-63
2023/06/26 03:34:24;;;;;;;;;;;;;;;23.24;80.02;96653.34;588380;241;67398;-63
2023/06/26 03:36:53;;;;;;;;;;;;;;;23.25;79.04;96649.56;588287;241;68733;-63
2023/06/26 03:39:21;;;;;;;;;;;;;;;23.24;78.59;96658.70;588371;241;64939;-63
2023/06/26 03:41:48;;;;;;;;;;;;;;;23.24;77.75;96653.34;588248;240;68715;-63
2023/06/26 03:44:16;;;;;;;;;;;;;;;23.24;76.98;96653.34;588276;241;66706;-63
2023/06/26 03:46:45;;;;;;;;;;;;;;;23.26;77.07;96647.67;588300;241;42626;-63
2023/06/26 03:49:13;;;;;;;;;;;;;;;23.25;76.77;96648.77;588346;241;66364;-63
2023/06/26 03:51:41;;;;;;;;;;;;;;;23.26;76.79;96663.76;588386;241;68795;-63
2023/06/26 03:54:09;;;;;;;;;;;;;;;23.25;76.68;96648.77;588216;241;65925;-63
2023/06/26 03:56:36;;;;;;;;;;;;;;;23.25;76.63;96649.56;588389;240;68638;-63
2023/06/26 03:59:05;;;;;;;;;;;;;;;23.25;76.67;96652.25;588332;241;69353;-63
2023/06/26 04:01:33;;;;;;;;;;;;;;;23.25;76.63;96649.56;588143;241;66150;-63
2023/06/26 04:04:01;;;;;;;;;;;;;;;23.25;76.57;96649.56;587517;240;68863;-63
2023/06/26 04:06:31;;;;;;;;;;;;;;;23.26;76.55;96658.40;587321;241;68531;-63
2023/06/26 04:08:58;;;;;;;;;;;;;;;23.25;76.71;96657.61;587401;241;62862;-63
2023/06/26 04:11:26;;;;;;;;;;;;;;;23.25;76.80;96660.29;587333;241;66418;-63
2023/06/26 04:13:53;;;;;;;;;;;;;;;23.25;76.76;96654.14;587161;241;68905;-64
2023/06/26 04:16:24;;;;;;;;;;;;;;;23.25;76.64;96662.18;587223;241;65095;-64
2023/06/26 04:18:50;;;;;;;;;;;;;;;23.25;76.86;96652.25;587302;241;68879;-64
2023/06/26 04:21:18;;;;;;;;;;;;;;;23.25;77.03;96660.29;587235;241;66814;-64
2023/06/26 04:23:47;;;;;;;;;;;;;;;23.25;76.80;96659.50;587187;241;62986;-64
2023/06/26 04:26:14;;;;;;;;;;;;;;;23.24;76.63;96653.34;587129;241;68916;-64
2023/06/26 04:28:43;;;;;;;;;;;;;;;23.24;76.61;96661.39;587214;241;68380;-64
2023/06/26 04:31:10;;;;;;;;;;;;;;;23.23;76.64;96651.73;587251;241;63108;-64
2023/06/26 04:33:38;;;;;;;;;;;;;;;23.24;76.94;96653.34;587215;241;68294;-64
2023/06/26 04:36:06;;;;;;;;;;;;;;;23.25;77.41;96654.92;587169;241;68520;-64
2023/06/26 04:38:33;;;;;;;;;;;;;;;23.25;77.88;96654.14;587157;241;65070;-64
2023/06/26 04:41:03;;;;;;;;;;;;;;;23.24;77.53;96656.03;587299;241;68638;-64
2023/06/26 04:43:30;;;;;;;;;;;;;;;23.23;76.71;96657.09;587397;241;68552;-64
2023/06/26 04:45:57;;;;;;;;;;;;;;;23.24;76.61;96657.89;587304;240;65289;-64
2023/06/26 04:48:27;;;;;;;;;;;;;;;23.24;76.64;96669.43;587297;241;68394;-64
2023/06/26 04:50:54;;;;;;;;;;;;;;;23.24;76.85;96669.43;587268;241;66492;-64
2023/06/26 04:53:22;;;;;;;;;;;;;;;23.25;77.63;96671.02;587173;241;63033;-64
2023/06/26 04:55:50;;;;;;;;;;;;;;;23.24;77.72;96672.11;587381;241;68835;-64
2023/06/26 04:58:18;;;;;;;;;;;;;;;23.25;77.07;96680.94;587217;241;68830;-64
2023/06/26 05:00:46;;;;;;;;;;;;;;;23.23;76.84;96683.91;587317;241;65109;-64
2023/06/26 05:03:16;;;;;;;;;;;;;;;23.24;77.10;96685.52;587346;241;66753;-64
2023/06/26 05:05:44;;;;;;;;;;;;;;;23.24;77.77;96685.52;587731;241;68748;-64
2023/06/26 05:08:15;;;;;;;;;;;;;;;23.24;77.11;96685.52;587709;241;46576;-63
2023/06/26 05:10:43;;;;;;;;;;;;;;;23.22;76.85;96682.33;587934;241;69009;-63
2023/06/26 05:13:10;;;;;;;;;;;;;;;23.23;76.71;96685.80;587737;241;68717;-63
2023/06/26 05:15:38;;;;;;;;;;;;;;;23.24;77.16;96690.88;587851;241;62953;-63
2023/06/26 05:18:06;;;;;;;;;;;;;;;23.25;78.05;96691.67;587890;241;66629;-63
2023/06/26 05:20:32;;;;;;;;;;;;;;;;;;587825;241;68362;-63
2023/06/26 05:23:00;;;;;;;;;;;;;;;23.24;78.32;96696.23;587769;241;65086;-63
2023/06/26 05:25:29;;;;;;;;;;;;;;;23.23;78.11;96696.52;587827;241;66670;-63
2023/06/26 05:27:57;;;;;;;;;;;;;;;23.23;77.13;96699.20;587787;241;69007;-63
2023/06/26 05:30:28;;;;;;;;;;;;;;;23.22;76.90;96697.62;587920;241;65689;-63
2023/06/26 05:32:56;;;;;;;;;;;;;;;23.24;77.57;96706.14;587808;241;66754;-63
2023/06/26 05:35:23;;;;;;;;;;;;;;;23.24;78.17;96700.78;587891;241;68768;-63
2023/06/26 05:37:51;;;;;;;;;;;;;;;23.22;78.85;96698.41;587768;241;65072;-62
2023/06/26 05:40:19;;;;;;;;;;;;;;;23.24;78.96;96698.92;587840;241;68864;-62
2023/06/26 05:42:47;;;;;;;;;;;;;;;23.21;78.31;96696.80;587623;241;68740;-62
2023/06/26 05:45:15;;;;;;;;;;;;;;;23.21;76.80;96693.33;587774;241;65075;-62
2023/06/26 05:47:43;;;;;;;;;;;;;;;23.26;75.93;96703.97;587851;241;68560;-62
2023/06/26 05:50:10;;;;;;;;;;;;;;;23.26;77.59;96694.04;587083;241;68732;-65
2023/06/26 05:52:38;;;;;;;;;;;;;;;23.26;78.82;96698.61;587533;239;65095;-63
2023/06/26 05:55:06;;;;;;;;;;;;;;;23.23;77.60;96696.52;584798;241;69061;-63
2023/06/26 05:57:35;;;;;;;;;;;;;;;23.22;76.76;96697.62;585925;241;68765;-63
2023/06/26 06:00:05;;;;;;;;;;;;;;;23.24;77.89;96706.97;586713;239;65329;-63
2023/06/26 06:02:35;;;;;;;;;;;;;;;23.24;79.53;96698.92;578542;244;47122;-63
2023/06/26 06:05:02;;;;;;;;;;;;;;;23.22;79.12;96706.45;571976;245;68818;-62
2023/06/26 06:07:30;;;;;;;;;;;;;;;23.23;80.72;96709.92;578430;245;64944;-63
2023/06/26 06:09:57;;;;;;;;;;;;;;;23.22;80.48;96713.70;575483;246;68763;-63
2023/06/26 06:12:25;;;;;;;;;;;;;;;23.19;78.20;96715.08;575515;243;66543;-63
2023/06/26 06:14:52;;;;;;;;;;;;;;;23.19;77.05;96709.72;575800;244;63119;-63
2023/06/26 06:17:21;;;;;;;;;;;;;;;23.20;78.26;96713.98;575847;243;66722;-65
2023/06/26 06:19:48;;;;;;;;;;;;;;;23.21;79.31;96704.84;575380;246;68831;-63
2023/06/26 06:22:21;;;;;;;;;;;;;;;23.21;79.82;96712.88;575562;244;65105;-62
2023/06/26 06:24:46;;;;;;;;;;;;;;;23.20;79.95;96711.30;575308;243;68843;-62
2023/06/26 06:27:14;;;;;;;;;;;;;;;23.20;79.92;96711.30;575457;246;68824;-63
2023/06/26 06:29:42;;;;;;;;;;;;;;;23.20;80.33;96705.94;575887;243;64876;-62
2023/06/26 06:32:09;;;;;;;;;;;;;;;23.21;81.31;96702.16;575506;244;68820;-64
2023/06/26 06:34:36;;;;;;;;;;;;;;;23.20;79.92;96707.83;575432;246;68605;-64
2023/06/26 06:37:04;;;;;;;;;;;;;;;23.20;80.02;96703.27;575615;244;63036;-63
2023/06/26 06:39:32;;;;;;;;;;;;;;;23.19;79.92;96704.36;575398;246;68920;-63
2023/06/26 06:41:59;;;;;;;;;;;;;;;23.20;80.27;96711.30;575398;243;67011;-63
2023/06/26 06:44:26;;;;;;;;;;;;;;;23.19;79.79;96704.36;575441;246;62951;-64
2023/06/26 06:46:54;;;;;;;;;;;;;;;23.20;79.75;96705.94;575550;244;68614;-63
2023/06/26 06:49:22;;;;;;;;;;;;;;;23.20;79.85;96710.52;575433;243;66607;-65
2023/06/26 06:51:49;;;;;;;;;;;;;;;23.17;75.59;96711.89;575158;246;62974;-64
2023/06/26 06:54:17;;;;;;;;;;;;;;;23.19;75.53;96704.36;575421;246;66863;-64
2023/06/26 06:56:44;;;;;;;;;;;;;;;23.21;75.05;96712.09;575508;245;68781;-64
2023/06/26 06:59:12;;;;;;;;;;;;;;;23.23;79.18;96712.61;575824;243;65136;-63
2023/06/26 07:01:40;;;;;;;;;;;;;;;23.21;79.00;96706.73;575428;246;66367;-63
2023/06/26 07:04:08;;;;;;;;;;;;;;;23.20;78.20;96705.15;583485;241;69451;-62
2023/06/26 07:06:35;;;;;;;;;;;;;;;23.20;78.88;96705.94;581813;244;65166;-65
2023/06/26 07:09:03;;;;;;;;;;;;;;;23.20;79.04;96705.15;586364;240;69251;-62
2023/06/26 07:11:30;;;;;;;;;;;;;;;23.19;78.71;96709.72;586367;240;68727;-62
2023/06/26 07:13:58;;;;;;;;;;;;;;;23.19;79.41;96704.36;581791;243;65194;-63
2023/06/26 07:16:25;;;;;;;;;;;;;;;23.19;79.62;96709.72;581801;242;66487;-63
2023/06/26 07:18:52;;;;;;;;;;;;;;;23.19;79.53;96712.41;581828;243;68917;-63
2023/06/26 07:21:20;;;;;;;;;;;;;;;23.19;79.08;96706.22;581700;243;62963;-63
2023/06/26 07:23:48;;;;;;;;;;;;;;;23.19;79.30;96707.04;581927;242;66674;-63
2023/06/26 07:26:15;;;;;;;;;;;;;;;23.20;78.90;96705.15;581788;243;66843;-64
2023/06/26 07:28:43;;;;;;;;;;;;;;;23.20;79.33;96705.15;581909;242;62481;-64
2023/06/26 07:31:10;;;;;;;;;;;;;;;23.20;78.83;96705.15;581782;243;67502;-64
2023/06/26 07:33:38;;;;;;;;;;;;;;;23.20;78.92;96705.15;581800;243;68668;-64
2023/06/26 07:36:05;;;;;;;;;;;;;;;23.20;79.32;96710.52;586528;241;64932;-64
2023/06/26 07:38:33;;;;;;;;;;;;;;;23.20;78.14;96705.15;588227;241;68753;-63
2023/06/26 07:41:00;;;;;;;;;;;;;;;23.20;78.49;96711.30;588273;240;68665;-63
2023/06/26 07:43:28;;;;;;;;;;;;;;;23.21;78.75;96704.05;588294;240;63014;-63
2023/06/26 07:45:58;;;;;;;;;;;;;;;23.20;78.47;96711.30;588150;240;66723;-64
2023/06/26 07:48:25;;;;;;;;;;;;;;;23.21;77.81;96712.09;588168;241;66609;-63
2023/06/26 07:50:53;;;;;;;;;;;;;;;23.20;77.82;96711.30;588262;241;63142;-63
2023/06/26 07:53:20;;;;;;;;;;;;;;;23.21;78.84;96715.56;588090;241;68782;-62
2023/06/26 07:55:48;;;;;;;;;;;;;;;23.22;78.95;96719.06;588294;241;69017;-63
2023/06/26 07:58:15;;;;;;;;;;;;;;;23.22;78.72;96711.02;588320;241;65182;-63
2023/06/26 08:00:43;;;;;;;;;;;;;;;23.21;78.87;96715.56;588087;241;66771;-63
2023/06/26 08:03:10;;;;;;;;;;;;;;;23.20;77.82;96711.30;587760;240;66844;-63
2023/06/26 08:05:38;;;;;;;;;;;;;;;23.21;77.71;96717.45;587133;241;62940;-64
2023/06/26 08:08:06;;;;;;;;;;;;;;;23.20;78.15;96722.03;587106;241;66677;-65
2023/06/26 08:10:34;;;;;;;;;;;;;;;23.21;77.73;96714.77;587175;241;68787;-63
2023/06/26 08:13:02;;;;;;;;;;;;;;;23.22;77.73;96719.06;587182;241;65124;-64
2023/06/26 08:15:29;;;;;;;;;;;;;;;23.21;77.98;96715.56;586564;239;68613;-64
2023/06/26 08:17:57;;;;;;;;;;;;;;;23.22;77.55;96716.39;586613;241;68774;-64
2023/06/26 08:20:24;;;;;;;;;;;;;;;23.21;77.86;96718.25;586540;241;63024;-64
2023/06/26 08:22:54;;;;;;;;;;;;;;;23.22;78.48;96713.70;587038;241;68949;-64
2023/06/26 08:25:21;;;;;;;;;;;;;;;23.22;77.76;96716.39;587150;241;68706;-65
2023/06/26 08:27:48;;;;;;;;;;;;;;;23.22;77.67;96721.75;587052;241;65936;-63
2023/06/26 08:30:18;;;;;;;;;;;;;;;23.22;77.54;96717.17;587262;241;66624;-64
2023/06/26 08:32:45;;;;;;;;;;;;;;;23.22;77.71;96719.06;587279;241;68602;-63
2023/06/26 08:35:13;;;;;;;;;;;;;;;23.22;77.19;96719.06;587204;241;65080;-63
2023/06/26 08:37:40;;;;;;;;;;;;;;;23.21;75.63;96715.56;587163;241;68625;-65
2023/06/26 08:40:08;;;;;;;;;;;;;;;23.24;79.27;96717.69;587299;241;68548;-65
2023/06/26 08:42:36;;;;;;;;;;;;;;;23.22;79.78;96714.50;587271;241;65106;-64
2023/06/26 08:45:03;;;;;;;;;;;;;;;23.23;79.19;96707.24;587266;241;68518;-64
2023/06/26 08:47:32;;;;;;;;;;;;;;;23.22;78.95;96703.77;587251;241;68496;-63
2023/06/26 08:50:01;;;;;;;;;;;;;;;23.21;77.84;96702.16;587182;240;63555;-63
2023/06/26 08:52:31;;;;;;;;;;;;;;;23.23;77.18;96699.20;587123;240;68554;-64
2023/06/26 08:54:59;;;;;;;;;;;;;;;23.23;78.24;96691.95;586963;241;68523;-64
2023/06/26 08:57:27;;;;;;;;;;;;;;;23.24;79.10;96693.56;587125;241;65082;-63
2023/06/26 08:59:55;;;;;;;;;;;;;;;23.24;79.92;96698.92;587149;241;66402;-63
2023/06/26 09:02:22;;;;;;;;;;;;;;;23.24;79.87;96701.60;587215;241;68522;-64
2023/06/26 09:04:50;;;;;;;;;;;;;;;23.23;78.99;96691.16;587643;241;65044;-64
2023/06/26 09:07:18;;;;;;;;;;;;;;;23.22;78.58;96690.37;587714;241;68481;-62
2023/06/26 09:09:45;;;;;;;;;;;;;;;23.21;77.03;96691.44;587671;241;69153;-63
2023/06/26 09:12:14;;;;;;;;;;;;;;;23.22;77.63;96693.05;587693;241;64966;-63
2023/06/26 09:14:41;;;;;;;;;;;;;;;23.22;77.67;96687.69;587700;241;68847;-62
2023/06/26 09:17:09;;;;;;;;;;;;;;;23.25;78.56;96694.34;587701;241;68722;-63
2023/06/26 09:19:39;;;;;;;;;;;;;;;23.23;77.98;96683.12;587725;241;65023;-62
2023/06/26 09:22:07;;;;;;;;;;;;;;;23.23;78.33;96677.75;587689;241;68859;-63
2023/06/26 09:24:35;;;;;;;;;;;;;;;23.24;78.04;96684.70;587524;241;66823;-62
2023/06/26 09:27:02;;;;;;;;;;;;;;;23.23;77.92;96677.75;587700;241;63102;-62
2023/06/26 09:29:30;;;;;;;;;;;;;;;23.23;76.82;96675.86;587749;241;66367;-62
2023/06/26 09:31:58;;;;;;;;;;;;;;;23.24;76.34;96676.66;587623;239;66789;-63
2023/06/26 09:34:27;;;;;;;;;;;;;;;23.25;77.15;96684.41;587658;241;63115;-62
2023/06/26 09:36:54;;;;;;;;;;;;;;;23.23;76.37;96686.59;587549;241;66829;-63
2023/06/26 09:39:21;;;;;;;;;;;;;;;23.25;76.98;96686.30;587668;241;69054;-62
2023/06/26 09:41:49;;;;;;;;;;;;;;;23.24;77.49;96690.88;587740;241;62934;-62
2023/06/26 09:44:16;;;;;;;;;;;;;;;23.24;76.52;96685.52;587717;241;68815;-63
2023/06/26 09:46:46;;;;;;;;;;;;;;;23.23;77.01;96686.59;587672;241;68739;-62
2023/06/26 09:49:14;;;;;;;;;;;;;;;23.25;77.06;96683.63;587714;241;65189;-62
2023/06/26 09:51:42;;;;;;;;;;;;;;;23.24;77.24;96685.52;587699;241;68829;-62
2023/06/26 09:54:10;;;;;;;;;;;;;;;23.25;76.66;96679.05;587695;241;68816;-62
2023/06/26 09:56:37;;;;;;;;;;;;;;;23.24;77.06;96677.47;587750;241;65077;-62
2023/06/26 09:59:06;;;;;;;;;;;;;;;23.25;77.25;96670.22;587633;241;68941;-62
2023/06/26 10:01:34;;;;;;;;;;;;;;;23.25;77.32;96667.54;587644;241;66752;-61
2023/06/26 10:04:01;;;;;;;;;;;;;;;23.25;75.67;96678.27;586813;241;62974;-62
2023/06/26 10:06:32;;;;;;;;;;;;;;;23.25;74.64;96676.38;586620;241;68821;-63
2023/06/26 10:09:01;;;;;;;;;;;;;;;23.26;76.26;96675.27;586642;241;68694;-64
2023/06/26 10:11:30;;;;;;;;;;;;;;;23.28;77.82;96672.31;586650;241;65038;-62
2023/06/26 10:13:58;;;;;;;;;;;;;;;23.26;76.11;96677.95;586438;241;68916;-63
2023/06/26 10:16:28;;;;;;;;;;;;;;;23.26;74.74;96683.31;586634;240;68532;-63
2023/06/26 10:18:57;;;;;;;;;;;;;;;23.26;74.73;96683.31;586714;242;65137;-63
2023/06/26 10:21:26;;;;;;;;;;;;;;;23.28;74.75;96682.25;586558;241;66488;-63
2023/06/26 10:23:54;;;;;;;;;;;;;;;23.29;74.79;96686.51;586619;241;71197;-64
2023/06/26 10:26:22;;;;;;;;;;;;;;;23.29;74.81;96681.94;586631;242;62969;-63
2023/06/26 10:28:52;;;;;;;;;;;;;;;23.29;75.43;96683.83;586561;241;66807;-64
2023/06/26 10:31:23;;;;;;;;;;;;;;;23.29;75.47;96689.19;586688;241;66686;-64
2023/06/26 10:33:50;;;;;;;;;;;;;;;23.28;75.27;96691.08;586643;241;64900;-64
2023/06/26 10:36:19;;;;;;;;;;;;;;;23.28;75.38;96683.03;586606;241;66694;-64
2023/06/26 10:38:51;;;;;;;;;;;;;;;23.29;76.94;96670.42;586707;240;69879;-64
2023/06/26 10:41:20;;;;;;;;;;;;;;;23.28;77.32;96674.99;586649;241;65344;-64
2023/06/26 10:43:50;;;;;;;;;;;;;;;23.27;75.61;96665.34;586520;241;68537;-64
2023/06/26 10:46:19;;;;;;;;;;;;;;;23.28;74.96;96669.63;585893;242;68745;-65
2023/06/26 10:48:59;;;;;;;;;;;;;;;23.29;74.92;96670.42;586617;242;62514;-65
2023/06/26 10:51:28;;;;;;;;;;;;;;;23.29;75.95;96667.73;586570;242;66797;-65
2023/06/26 10:53:56;;;;;;;;;;;;;;;23.29;77.27;96665.06;586676;242;68606;-65
2023/06/26 10:56:42;;;;;;;;;;;;;;;23.28;76.72;96658.12;586568;242;64999;-65
2023/06/26 10:59:17;;;;;;;;;;;;;;;23.27;76.40;96654.61;586663;242;66733;-64
2023/06/26 11:01:45;;;;;;;;;;;;;;;23.26;75.34;96653.83;586703;242;66730;-64
2023/06/26 11:04:16;;;;;;;;;;;;;;;23.28;75.56;96652.75;586620;241;63038;-64
2023/06/26 11:06:45;;;;;;;;;;;;;;;23.26;75.37;96656.50;588375;241;66776;-63
2023/06/26 11:09:14;;;;;;;;;;;;;;;23.28;75.60;96660.80;588381;241;68736;-64
2023/06/26 11:11:57;;;;;;;;;;;;;;;23.27;75.60;96651.94;588312;241;65073;-64
2023/06/26 11:14:24;;;;;;;;;;;;;;;23.28;75.18;96650.08;588306;241;68886;-64
2023/06/26 11:16:52;;;;;;;;;;;;;;;23.28;74.90;96642.82;588152;241;66752;-69
2023/06/26 11:19:22;;;;;;;;;;;;;;;23.29;74.81;96649.77;584577;240;63079;-68
2023/06/26 11:21:50;;;;;;;;;;;;;;;23.30;74.75;96642.51;583881;240;66646;-64
2023/06/26 11:24:18;;;;;;;;;;;;;;;23.29;74.83;96655.13;585042;240;66417;-63
2023/06/26 11:26:46;;;;;;;;;;;;;;;23.30;74.80;96646.01;587276;240;66704;-64
2023/06/26 11:29:13;;;;;;;;;;;;;;;23.30;74.84;96662.09;589101;240;68814;-65
2023/06/26 11:31:42;;;;;;;;;;;;;;;23.30;74.95;96658.59;581822;244;68501;-64
2023/06/26 11:34:11;;;;;;;;;;;;;;;23.30;75.00;96667.45;585051;240;64857;-64
2023/06/26 11:36:41;;;;;;;;;;;;;;;23.30;75.04;96674.69;586990;240;66725;-65
2023/06/26 11:39:08;;;;;;;;;;;;;;;23.30;75.08;96678.19;589212;240;67054;-63
2023/06/26 11:41:36;;;;;;;;;;;;;;;23.31;75.04;96682.44;581793;244;62894;-63
2023/06/26 11:44:04;;;;;;;;;;;;;;;23.31;74.98;96676.29;581859;244;66730;-62
2023/06/26 11:46:33;;;;;;;;;;;;;;;23.31;75.00;96678.97;585027;240;68540;-63
2023/06/26 11:49:00;;;;;;;;;;;;;;;23.32;75.06;96670.62;583811;241;65972;-62
2023/06/26 11:51:28;;;;;;;;;;;;;;;23.31;75.05;96673.61;588209;241;69194;-62
2023/06/26 11:53:56;;;;;;;;;;;;;;;23.31;75.06;96679.77;588176;241;68912;-63
2023/06/26 11:56:25;;;;;;;;;;;;;;;23.31;75.03;96679.77;588127;240;65142;-63
2023/06/26 11:59:03;;;;;;;;;;;;;;;23.31;75.03;96674.40;588279;241;68462;-63
2023/06/26 12:01:36;;;;;;;;;;;;;;;23.32;75.03;96677.87;588008;241;49665;-63
2023/06/26 12:04:07;;;;;;;;;;;;;;;23.31;75.02;96674.40;587187;240;65064;-63
2023/06/26 12:06:36;;;;;;;;;;;;;;;23.32;75.09;96677.87;587138;241;66810;-62
2023/06/26 12:09:05;;;;;;;;;;;;;;;23.32;75.13;96680.55;586979;241;66722;-64
2023/06/26 12:11:34;;;;;;;;;;;;;;;23.31;75.17;96674.40;586257;241;64946;-63
2023/06/26 12:14:02;;;;;;;;;;;;;;;23.31;75.17;96678.97;587092;241;66680;-63
2023/06/26 12:16:30;;;;;;;;;;;;;;;23.32;75.21;96686.70;587073;241;66616;-63
2023/06/26 12:19:02;;;;;;;;;;;;;;;23.32;75.18;96699.33;586238;241;64975;-63
2023/06/26 12:21:31;;;;;;;;;;;;;;;23.32;75.19;96688.59;586681;241;66624;-63
2023/06/26 12:24:01;;;;;;;;;;;;;;;23.32;75.18;96691.28;587232;241;66646;-63
2023/06/26 12:26:29;;;;;;;;;;;;;;;23.32;75.24;96693.96;587135;241;65092;-63
2023/06/26 12:29:04;;;;;;;;;;;;;;;23.32;75.22;96696.64;587148;241;68854;-63
2023/06/26 12:31:32;;;;;;;;;;;;;;;23.32;75.24;96696.64;586824;241;68750;-64
2023/06/26 12:33:59;;;;;;;;;;;;;;;23.32;75.22;96702.00;587146;241;65102;-64
2023/06/26 12:36:27;;;;;;;;;;;;;;;23.32;75.19;96708.16;587114;241;68861;-64
2023/06/26 12:38:55;;;;;;;;;;;;;;;23.32;75.19;96707.37;587252;241;68512;-65
2023/06/26 12:41:24;;;;;;;;;;;;;;;23.32;75.18;96710.05;587277;241;62944;-64
2023/06/26 12:43:53;;;;;;;;;;;;;;;23.32;75.17;96713.52;587164;241;66351;-64
2023/06/26 12:46:20;;;;;;;;;;;;;;;23.31;75.13;96703.89;587168;240;66193;-66
2023/06/26 12:48:48;;;;;;;;;;;;;;;23.33;75.24;96703.61;587174;241;62896;-64
2023/06/26 12:51:17;;;;;;;;;;;;;;;23.32;75.18;96704.69;587123;241;68358;-64
2023/06/26 12:53:45;;;;;;;;;;;;;;;23.32;75.29;96710.05;587079;241;66912;-65